sensor_id;sensor_type;location;lat;lon;timestamp;P1;durP1;ratioP1;P2;durP2;ratioP2
9775;SDS011;4927;52.472;13.108;2022-11-23T00:03:27;59.22;;;29.75;;
9775;SDS011;4927;52.472;13.108;2022-11-23T00:08:34;66.80;;;32.05;;
9775;SDS011;4927;52.472;13.108;2022-11-23T00:13:40;62.22;;;29.42;;
9775;SDS011;4927;52.472;13.108;2022-11-23T00:18:47;69.80;;;31.75;;
9775;SDS011;4927;52.472;13.108;2022-11-23T00:23:53;64.32;;;31.52;;
9775;SDS011;4927;52.472;13.108;2022-11-23T00:28:59;70.62;;;31.45;;
9775;SDS011;4927;52.472;13.108;2022-11-23T00:34:05;70.40;;;32.67;;
9775;SDS011;4927;52.472;13.108;2022-11-23T00:39:12;63.15;;;29.73;;
9775;SDS011;4927;52.472;13.108;2022-11-23T00:44:19;67.35;;;31.02;;
9775;SDS011;4927;52.472;13.108;2022-11-23T00:49:25;61.63;;;31.12;;
9775;SDS011;4927;52.472;13.108;2022-11-23T00:54:31;68.32;;;31.70;;
9775;SDS011;4927;52.472;13.108;2022-11-23T00:59:37;66.97;;;31.65;;
9775;SDS011;4927;52.472;13.108;2022-11-23T01:04:44;59.95;;;30.73;;
9775;SDS011;4927;52.472;13.108;2022-11-23T01:09:50;52.22;;;27.70;;
9775;SDS011;4927;52.472;13.108;2022-11-23T01:14:56;58.83;;;29.37;;
9775;SDS011;4927;52.472;13.108;2022-11-23T01:20:03;69.50;;;31.67;;
9775;SDS011;4927;52.472;13.108;2022-11-23T01:25:10;55.63;;;28.08;;
9775;SDS011;4927;52.472;13.108;2022-11-23T01:30:16;68.95;;;32.85;;
9775;SDS011;4927;52.472;13.108;2022-11-23T01:35:22;56.15;;;29.65;;
9775;SDS011;4927;52.472;13.108;2022-11-23T01:40:28;53.85;;;28.52;;
9775;SDS011;4927;52.472;13.108;2022-11-23T01:45:37;64.18;;;29.17;;
9775;SDS011;4927;52.472;13.108;2022-11-23T01:50:45;48.13;;;26.05;;
9775;SDS011;4927;52.472;13.108;2022-11-23T01:55:51;61.40;;;30.35;;
9775;SDS011;4927;52.472;13.108;2022-11-23T02:00:57;57.75;;;29.87;;
9775;SDS011;4927;52.472;13.108;2022-11-23T02:06:02;54.88;;;28.30;;
9775;SDS011;4927;52.472;13.108;2022-11-23T02:11:08;55.63;;;27.95;;
9775;SDS011;4927;52.472;13.108;2022-11-23T02:16:14;54.85;;;28.48;;
9775;SDS011;4927;52.472;13.108;2022-11-23T02:21:20;52.10;;;28.00;;
9775;SDS011;4927;52.472;13.108;2022-11-23T02:26:28;50.10;;;28.92;;
9775;SDS011;4927;52.472;13.108;2022-11-23T02:31:32;48.85;;;26.70;;
9775;SDS011;4927;52.472;13.108;2022-11-23T02:36:40;48.58;;;26.20;;
9775;SDS011;4927;52.472;13.108;2022-11-23T02:41:46;47.95;;;26.25;;
9775;SDS011;4927;52.472;13.108;2022-11-23T02:46:51;47.10;;;26.55;;
9775;SDS011;4927;52.472;13.108;2022-11-23T02:51:58;45.60;;;24.80;;
9775;SDS011;4927;52.472;13.108;2022-11-23T02:57:04;43.58;;;25.42;;
9775;SDS011;4927;52.472;13.108;2022-11-23T03:02:12;48.80;;;25.80;;
9775;SDS011;4927;52.472;13.108;2022-11-23T03:07:18;37.45;;;22.90;;
9775;SDS011;4927;52.472;13.108;2022-11-23T03:12:24;41.72;;;24.45;;
9775;SDS011;4927;52.472;13.108;2022-11-23T03:17:30;45.22;;;24.73;;
9775;SDS011;4927;52.472;13.108;2022-11-23T03:22:35;40.95;;;24.27;;
9775;SDS011;4927;52.472;13.108;2022-11-23T03:27:41;43.33;;;25.23;;
9775;SDS011;4927;52.472;13.108;2022-11-23T03:32:47;46.95;;;26.10;;
9775;SDS011;4927;52.472;13.108;2022-11-23T03:37:53;47.78;;;26.10;;
9775;SDS011;4927;52.472;13.108;2022-11-23T03:43:00;47.35;;;26.12;;
9775;SDS011;4927;52.472;13.108;2022-11-23T03:48:10;41.95;;;24.55;;
9775;SDS011;4927;52.472;13.108;2022-11-23T03:53:16;42.03;;;23.92;;
9775;SDS011;4927;52.472;13.108;2022-11-23T03:58:22;49.55;;;26.67;;
9775;SDS011;4927;52.472;13.108;2022-11-23T04:03:29;39.88;;;23.75;;
9775;SDS011;4927;52.472;13.108;2022-11-23T04:08:35;46.83;;;26.30;;
9775;SDS011;4927;52.472;13.108;2022-11-23T04:13:41;46.47;;;26.25;;
9775;SDS011;4927;52.472;13.108;2022-11-23T04:18:47;41.78;;;25.70;;
9775;SDS011;4927;52.472;13.108;2022-11-23T04:23:54;49.10;;;27.77;;
9775;SDS011;4927;52.472;13.108;2022-11-23T04:29:00;50.72;;;27.13;;
9775;SDS011;4927;52.472;13.108;2022-11-23T04:34:05;51.60;;;28.23;;
9775;SDS011;4927;52.472;13.108;2022-11-23T04:39:15;47.28;;;25.65;;
9775;SDS011;4927;52.472;13.108;2022-11-23T04:44:21;41.45;;;24.10;;
9775;SDS011;4927;52.472;13.108;2022-11-23T04:49:28;39.83;;;23.20;;
9775;SDS011;4927;52.472;13.108;2022-11-23T04:54:35;38.95;;;24.58;;
9775;SDS011;4927;52.472;13.108;2022-11-23T04:59:41;42.30;;;25.80;;
9775;SDS011;4927;52.472;13.108;2022-11-23T05:04:47;41.63;;;24.00;;
9775;SDS011;4927;52.472;13.108;2022-11-23T05:09:55;41.00;;;24.12;;
9775;SDS011;4927;52.472;13.108;2022-11-23T05:15:02;44.10;;;24.95;;
9775;SDS011;4927;52.472;13.108;2022-11-23T05:20:08;40.83;;;24.30;;
9775;SDS011;4927;52.472;13.108;2022-11-23T05:25:15;43.47;;;24.63;;
9775;SDS011;4927;52.472;13.108;2022-11-23T05:30:22;48.40;;;26.08;;
9775;SDS011;4927;52.472;13.108;2022-11-23T05:35:28;40.12;;;23.87;;
9775;SDS011;4927;52.472;13.108;2022-11-23T05:40:34;43.20;;;24.67;;
9775;SDS011;4927;52.472;13.108;2022-11-23T05:45:47;41.17;;;23.60;;
9775;SDS011;4927;52.472;13.108;2022-11-23T05:50:51;38.10;;;23.08;;
9775;SDS011;4927;52.472;13.108;2022-11-23T05:55:59;40.63;;;23.42;;
9775;SDS011;4927;52.472;13.108;2022-11-23T06:01:03;42.72;;;24.70;;
9775;SDS011;4927;52.472;13.108;2022-11-23T06:06:07;42.62;;;23.65;;
9775;SDS011;4927;52.472;13.108;2022-11-23T06:11:14;34.70;;;22.00;;
9775;SDS011;4927;52.472;13.108;2022-11-23T06:16:20;35.15;;;22.50;;
9775;SDS011;4927;52.472;13.108;2022-11-23T06:21:26;39.03;;;23.05;;
9775;SDS011;4927;52.472;13.108;2022-11-23T06:26:32;46.37;;;25.40;;
9775;SDS011;4927;52.472;13.108;2022-11-23T06:31:36;38.33;;;23.67;;
9775;SDS011;4927;52.472;13.108;2022-11-23T06:36:43;38.03;;;24.12;;
9775;SDS011;4927;52.472;13.108;2022-11-23T06:41:49;39.30;;;23.30;;
9775;SDS011;4927;52.472;13.108;2022-11-23T06:46:53;39.40;;;23.67;;
9775;SDS011;4927;52.472;13.108;2022-11-23T06:51:59;39.80;;;23.15;;
9775;SDS011;4927;52.472;13.108;2022-11-23T06:57:07;32.78;;;21.73;;
9775;SDS011;4927;52.472;13.108;2022-11-23T07:02:11;41.58;;;24.75;;
9775;SDS011;4927;52.472;13.108;2022-11-23T07:07:17;37.38;;;22.80;;
9775;SDS011;4927;52.472;13.108;2022-11-23T07:12:23;37.58;;;23.12;;
9775;SDS011;4927;52.472;13.108;2022-11-23T07:17:29;36.50;;;22.87;;
9775;SDS011;4927;52.472;13.108;2022-11-23T07:22:37;33.08;;;22.10;;
9775;SDS011;4927;52.472;13.108;2022-11-23T07:27:43;38.90;;;23.60;;
9775;SDS011;4927;52.472;13.108;2022-11-23T07:32:50;40.45;;;23.38;;
9775;SDS011;4927;52.472;13.108;2022-11-23T07:37:56;38.88;;;21.67;;
9775;SDS011;4927;52.472;13.108;2022-11-23T07:43:03;39.13;;;23.08;;
9775;SDS011;4927;52.472;13.108;2022-11-23T07:48:09;34.78;;;21.48;;
9775;SDS011;4927;52.472;13.108;2022-11-23T07:53:15;36.40;;;22.48;;
9775;SDS011;4927;52.472;13.108;2022-11-23T07:58:21;42.15;;;23.58;;
9775;SDS011;4927;52.472;13.108;2022-11-23T08:03:27;37.03;;;22.42;;
9775;SDS011;4927;52.472;13.108;2022-11-23T08:08:33;41.95;;;23.42;;
9775;SDS011;4927;52.472;13.108;2022-11-23T08:13:40;38.78;;;23.90;;
9775;SDS011;4927;52.472;13.108;2022-11-23T08:18:46;40.12;;;23.40;;
9775;SDS011;4927;52.472;13.108;2022-11-23T08:23:53;36.00;;;21.12;;
9775;SDS011;4927;52.472;13.108;2022-11-23T08:28:59;35.88;;;22.55;;
9775;SDS011;4927;52.472;13.108;2022-11-23T08:34:05;35.25;;;23.75;;
9775;SDS011;4927;52.472;13.108;2022-11-23T08:39:12;33.50;;;22.30;;
9775;SDS011;4927;52.472;13.108;2022-11-23T08:44:18;32.88;;;22.00;;
9775;SDS011;4927;52.472;13.108;2022-11-23T08:49:24;37.58;;;21.62;;
9775;SDS011;4927;52.472;13.108;2022-11-23T08:54:30;30.83;;;20.40;;
9775;SDS011;4927;52.472;13.108;2022-11-23T08:59:35;34.80;;;22.42;;
9775;SDS011;4927;52.472;13.108;2022-11-23T09:04:42;32.03;;;20.90;;
9775;SDS011;4927;52.472;13.108;2022-11-23T09:09:50;33.45;;;21.75;;
9775;SDS011;4927;52.472;13.108;2022-11-23T09:14:57;35.07;;;21.70;;
9775;SDS011;4927;52.472;13.108;2022-11-23T09:20:03;29.30;;;19.05;;
9775;SDS011;4927;52.472;13.108;2022-11-23T09:25:10;27.33;;;17.73;;
9775;SDS011;4927;52.472;13.108;2022-11-23T09:30:17;23.42;;;17.33;;
9775;SDS011;4927;52.472;13.108;2022-11-23T09:35:24;22.55;;;16.48;;
9775;SDS011;4927;52.472;13.108;2022-11-23T09:40:32;24.65;;;16.55;;
9775;SDS011;4927;52.472;13.108;2022-11-23T09:45:39;23.40;;;16.90;;
9775;SDS011;4927;52.472;13.108;2022-11-23T09:50:50;21.67;;;15.83;;
9775;SDS011;4927;52.472;13.108;2022-11-23T09:56:14;22.58;;;15.38;;
9775;SDS011;4927;52.472;13.108;2022-11-23T10:01:18;19.53;;;14.50;;
9775;SDS011;4927;52.472;13.108;2022-11-23T10:06:26;21.70;;;14.50;;
9775;SDS011;4927;52.472;13.108;2022-11-23T10:11:38;22.03;;;15.63;;
9775;SDS011;4927;52.472;13.108;2022-11-23T10:17:08;17.20;;;13.97;;
9775;SDS011;4927;52.472;13.108;2022-11-23T10:22:20;19.80;;;14.87;;
9775;SDS011;4927;52.472;13.108;2022-11-23T10:27:23;20.73;;;14.47;;
9775;SDS011;4927;52.472;13.108;2022-11-23T10:32:36;16.40;;;13.40;;
9775;SDS011;4927;52.472;13.108;2022-11-23T10:37:42;16.83;;;13.30;;
9775;SDS011;4927;52.472;13.108;2022-11-23T10:42:52;15.00;;;13.03;;
9775;SDS011;4927;52.472;13.108;2022-11-23T10:47:57;20.03;;;14.20;;
9775;SDS011;4927;52.472;13.108;2022-11-23T10:53:17;17.10;;;13.63;;
9775;SDS011;4927;52.472;13.108;2022-11-23T10:58:31;18.60;;;12.90;;
9775;SDS011;4927;52.472;13.108;2022-11-23T11:03:37;14.23;;;11.90;;
9775;SDS011;4927;52.472;13.108;2022-11-23T11:08:48;15.87;;;11.50;;
9775;SDS011;4927;52.472;13.108;2022-11-23T11:14:02;16.70;;;12.33;;
9775;SDS011;4927;52.472;13.108;2022-11-23T11:24:31;13.17;;;11.77;;
9775;SDS011;4927;52.472;13.108;2022-11-23T11:29:47;19.23;;;13.77;;
9775;SDS011;4927;52.472;13.108;2022-11-23T11:34:46;19.17;;;14.30;;
9775;SDS011;4927;52.472;13.108;2022-11-23T11:39:53;16.70;;;13.80;;
9775;SDS011;4927;52.472;13.108;2022-11-23T11:44:59;16.70;;;14.10;;
9775;SDS011;4927;52.472;13.108;2022-11-23T11:50:13;14.53;;;12.53;;
9775;SDS011;4927;52.472;13.108;2022-11-23T11:55:18;14.90;;;13.30;;
9775;SDS011;4927;52.472;13.108;2022-11-23T12:00:24;15.80;;;13.60;;
9775;SDS011;4927;52.472;13.108;2022-11-23T12:05:36;16.23;;;13.33;;
9775;SDS011;4927;52.472;13.108;2022-11-23T12:10:47;14.50;;;12.97;;
9775;SDS011;4927;52.472;13.108;2022-11-23T12:16:02;17.30;;;13.50;;
9775;SDS011;4927;52.472;13.108;2022-11-23T12:21:29;19.90;;;13.87;;
9775;SDS011;4927;52.472;13.108;2022-11-23T12:38:01;17.80;;;13.07;;
9775;SDS011;4927;52.472;13.108;2022-11-23T12:43:05;15.93;;;12.17;;
9775;SDS011;4927;52.472;13.108;2022-11-23T12:48:17;15.47;;;13.17;;
9775;SDS011;4927;52.472;13.108;2022-11-23T12:53:28;15.07;;;11.47;;
9775;SDS011;4927;52.472;13.108;2022-11-23T12:58:46;13.40;;;10.87;;
9775;SDS011;4927;52.472;13.108;2022-11-23T13:09:24;14.00;;;11.27;;
9775;SDS011;4927;52.472;13.108;2022-11-23T13:14:41;14.70;;;11.83;;
9775;SDS011;4927;52.472;13.108;2022-11-23T13:20:10;17.20;;;13.43;;
9775;SDS011;4927;52.472;13.108;2022-11-23T13:25:19;12.90;;;11.37;;
9775;SDS011;4927;52.472;13.108;2022-11-23T13:35:50;14.77;;;13.20;;
9775;SDS011;4927;52.472;13.108;2022-11-23T13:40:57;17.90;;;13.90;;
9775;SDS011;4927;52.472;13.108;2022-11-23T13:51:30;16.93;;;13.77;;
9775;SDS011;4927;52.472;13.108;2022-11-23T13:56:39;13.43;;;12.03;;
9775;SDS011;4927;52.472;13.108;2022-11-23T14:07:23;17.57;;;13.13;;
9775;SDS011;4927;52.472;13.108;2022-11-23T14:12:34;16.43;;;12.77;;
9775;SDS011;4927;52.472;13.108;2022-11-23T14:17:44;17.23;;;13.43;;
9775;SDS011;4927;52.472;13.108;2022-11-23T14:33:58;13.87;;;12.33;;
9775;SDS011;4927;52.472;13.108;2022-11-23T14:44:28;14.53;;;12.37;;
9775;SDS011;4927;52.472;13.108;2022-11-23T14:49:35;17.27;;;12.50;;
9775;SDS011;4927;52.472;13.108;2022-11-23T14:54:44;17.23;;;11.80;;
9775;SDS011;4927;52.472;13.108;2022-11-23T14:59:51;12.30;;;11.10;;
9775;SDS011;4927;52.472;13.108;2022-11-23T15:05:04;14.03;;;10.73;;
9775;SDS011;4927;52.472;13.108;2022-11-23T15:10:22;16.27;;;11.90;;
9775;SDS011;4927;52.472;13.108;2022-11-23T15:15:33;17.60;;;12.33;;
9775;SDS011;4927;52.472;13.108;2022-11-23T15:20:42;13.80;;;12.30;;
9775;SDS011;4927;52.472;13.108;2022-11-23T15:25:50;15.50;;;13.00;;
9775;SDS011;4927;52.472;13.108;2022-11-23T15:30:55;17.93;;;15.00;;
9775;SDS011;4927;52.472;13.108;2022-11-23T15:36:02;16.70;;;13.80;;
9775;SDS011;4927;52.472;13.108;2022-11-23T15:41:08;19.93;;;14.00;;
9775;SDS011;4927;52.472;13.108;2022-11-23T15:46:14;17.80;;;13.67;;
9775;SDS011;4927;52.472;13.108;2022-11-23T15:51:26;17.87;;;13.90;;
9775;SDS011;4927;52.472;13.108;2022-11-23T15:56:42;20.43;;;14.13;;
9775;SDS011;4927;52.472;13.108;2022-11-23T16:01:47;82.70;;;64.60;;
9775;SDS011;4927;52.472;13.108;2022-11-23T16:06:53;93.50;;;68.10;;
9775;SDS011;4927;52.472;13.108;2022-11-23T16:11:58;27.97;;;18.07;;
9775;SDS011;4927;52.472;13.108;2022-11-23T16:17:05;57.73;;;41.57;;
9775;SDS011;4927;52.472;13.108;2022-11-23T16:22:15;17.17;;;13.80;;
9775;SDS011;4927;52.472;13.108;2022-11-23T16:27:20;18.07;;;13.10;;
9775;SDS011;4927;52.472;13.108;2022-11-23T16:32:27;16.63;;;12.80;;
9775;SDS011;4927;52.472;13.108;2022-11-23T16:37:33;21.87;;;14.67;;
9775;SDS011;4927;52.472;13.108;2022-11-23T16:42:41;20.70;;;14.50;;
9775;SDS011;4927;52.472;13.108;2022-11-23T16:47:51;19.90;;;14.47;;
9775;SDS011;4927;52.472;13.108;2022-11-23T16:52:59;20.30;;;14.80;;
9775;SDS011;4927;52.472;13.108;2022-11-23T16:58:04;18.00;;;14.50;;
9775;SDS011;4927;52.472;13.108;2022-11-23T17:03:11;21.33;;;15.70;;
9775;SDS011;4927;52.472;13.108;2022-11-23T17:08:17;20.80;;;14.70;;
9775;SDS011;4927;52.472;13.108;2022-11-23T17:13:24;21.20;;;14.40;;
9775;SDS011;4927;52.472;13.108;2022-11-23T17:18:40;19.50;;;14.30;;
9775;SDS011;4927;52.472;13.108;2022-11-23T17:23:46;17.30;;;14.47;;
9775;SDS011;4927;52.472;13.108;2022-11-23T17:28:52;20.30;;;14.90;;
9775;SDS011;4927;52.472;13.108;2022-11-23T17:33:59;18.83;;;14.10;;
9775;SDS011;4927;52.472;13.108;2022-11-23T17:39:06;22.63;;;15.10;;
9775;SDS011;4927;52.472;13.108;2022-11-23T17:44:12;22.77;;;15.20;;
9775;SDS011;4927;52.472;13.108;2022-11-23T17:49:18;22.60;;;15.70;;
9775;SDS011;4927;52.472;13.108;2022-11-23T17:54:24;23.77;;;16.40;;
9775;SDS011;4927;52.472;13.108;2022-11-23T17:59:31;20.50;;;15.70;;
9775;SDS011;4927;52.472;13.108;2022-11-23T18:04:37;22.57;;;15.90;;
9775;SDS011;4927;52.472;13.108;2022-11-23T18:09:44;19.57;;;14.80;;
9775;SDS011;4927;52.472;13.108;2022-11-23T18:14:50;30.20;;;17.57;;
9775;SDS011;4927;52.472;13.108;2022-11-23T18:19:56;21.13;;;15.80;;
9775;SDS011;4927;52.472;13.108;2022-11-23T18:25:03;22.40;;;15.20;;
9775;SDS011;4927;52.472;13.108;2022-11-23T18:30:10;20.83;;;14.50;;
9775;SDS011;4927;52.472;13.108;2022-11-23T18:35:17;20.83;;;15.90;;
9775;SDS011;4927;52.472;13.108;2022-11-23T18:40:23;18.83;;;14.10;;
9775;SDS011;4927;52.472;13.108;2022-11-23T18:45:29;21.87;;;16.30;;
9775;SDS011;4927;52.472;13.108;2022-11-23T18:50:35;22.17;;;14.90;;
9775;SDS011;4927;52.472;13.108;2022-11-23T18:55:42;22.03;;;14.80;;
9775;SDS011;4927;52.472;13.108;2022-11-23T19:00:48;22.77;;;16.40;;
9775;SDS011;4927;52.472;13.108;2022-11-23T19:05:59;24.00;;;16.77;;
9775;SDS011;4927;52.472;13.108;2022-11-23T19:11:03;23.60;;;17.40;;
9775;SDS011;4927;52.472;13.108;2022-11-23T19:16:11;22.70;;;16.37;;
9775;SDS011;4927;52.472;13.108;2022-11-23T19:21:18;25.17;;;17.70;;
9775;SDS011;4927;52.472;13.108;2022-11-23T19:26:25;29.83;;;18.80;;
9775;SDS011;4927;52.472;13.108;2022-11-23T19:31:31;28.33;;;19.03;;
9775;SDS011;4927;52.472;13.108;2022-11-23T19:36:37;24.00;;;17.30;;
9775;SDS011;4927;52.472;13.108;2022-11-23T19:41:47;25.20;;;18.73;;
9775;SDS011;4927;52.472;13.108;2022-11-23T19:46:53;25.73;;;18.70;;
9775;SDS011;4927;52.472;13.108;2022-11-23T19:52:00;28.98;;;19.17;;
9775;SDS011;4927;52.472;13.108;2022-11-23T19:57:07;24.27;;;17.85;;
9775;SDS011;4927;52.472;13.108;2022-11-23T20:02:14;29.45;;;18.87;;
9775;SDS011;4927;52.472;13.108;2022-11-23T20:07:18;27.30;;;18.85;;
9775;SDS011;4927;52.472;13.108;2022-11-23T20:12:24;31.25;;;20.30;;
9775;SDS011;4927;52.472;13.108;2022-11-23T20:17:30;28.77;;;18.83;;
9775;SDS011;4927;52.472;13.108;2022-11-23T20:22:37;29.42;;;18.62;;
9775;SDS011;4927;52.472;13.108;2022-11-23T20:27:43;22.45;;;17.00;;
9775;SDS011;4927;52.472;13.108;2022-11-23T20:32:48;27.98;;;18.77;;
9775;SDS011;4927;52.472;13.108;2022-11-23T20:37:55;26.00;;;19.50;;
9775;SDS011;4927;52.472;13.108;2022-11-23T20:43:01;27.57;;;20.33;;
9775;SDS011;4927;52.472;13.108;2022-11-23T20:48:05;26.10;;;19.07;;
9775;SDS011;4927;52.472;13.108;2022-11-23T20:53:11;32.90;;;22.03;;
9775;SDS011;4927;52.472;13.108;2022-11-23T20:58:18;30.70;;;20.50;;
9775;SDS011;4927;52.472;13.108;2022-11-23T21:03:24;31.12;;;21.33;;
9775;SDS011;4927;52.472;13.108;2022-11-23T21:08:30;33.67;;;22.35;;
9775;SDS011;4927;52.472;13.108;2022-11-23T21:13:34;34.33;;;23.87;;
9775;SDS011;4927;52.472;13.108;2022-11-23T21:18:47;33.03;;;21.83;;
9775;SDS011;4927;52.472;13.108;2022-11-23T21:23:53;34.80;;;23.62;;
9775;SDS011;4927;52.472;13.108;2022-11-23T21:28:59;44.00;;;26.80;;
9775;SDS011;4927;52.472;13.108;2022-11-23T21:34:04;44.75;;;27.87;;
9775;SDS011;4927;52.472;13.108;2022-11-23T21:39:09;37.17;;;24.67;;
9775;SDS011;4927;52.472;13.108;2022-11-23T21:44:15;51.77;;;28.67;;
9775;SDS011;4927;52.472;13.108;2022-11-23T21:49:21;59.25;;;31.30;;
9775;SDS011;4927;52.472;13.108;2022-11-23T21:54:27;43.55;;;27.25;;
9775;SDS011;4927;52.472;13.108;2022-11-23T21:59:34;44.75;;;28.38;;
9775;SDS011;4927;52.472;13.108;2022-11-23T22:04:40;55.63;;;31.20;;
9775;SDS011;4927;52.472;13.108;2022-11-23T22:09:44;71.45;;;32.88;;
9775;SDS011;4927;52.472;13.108;2022-11-23T22:14:50;139.00;;;35.10;;
9775;SDS011;4927;52.472;13.108;2022-11-23T22:19:57;56.37;;;30.70;;
9775;SDS011;4927;52.472;13.108;2022-11-23T22:25:03;53.40;;;30.30;;
9775;SDS011;4927;52.472;13.108;2022-11-23T22:30:10;51.60;;;31.77;;
9775;SDS011;4927;52.472;13.108;2022-11-23T22:35:21;114.37;;;31.77;;
9775;SDS011;4927;52.472;13.108;2022-11-23T22:40:27;74.22;;;31.12;;
9775;SDS011;4927;52.472;13.108;2022-11-23T22:45:34;50.30;;;28.50;;
9775;SDS011;4927;52.472;13.108;2022-11-23T22:50:41;46.70;;;28.50;;
9775;SDS011;4927;52.472;13.108;2022-11-23T22:55:45;48.47;;;28.73;;
9775;SDS011;4927;52.472;13.108;2022-11-23T23:00:52;52.47;;;27.83;;
9775;SDS011;4927;52.472;13.108;2022-11-23T23:05:58;49.58;;;28.95;;
9775;SDS011;4927;52.472;13.108;2022-11-23T23:11:05;46.72;;;28.08;;
9775;SDS011;4927;52.472;13.108;2022-11-23T23:16:11;52.53;;;27.90;;
9775;SDS011;4927;52.472;13.108;2022-11-23T23:21:18;48.17;;;28.62;;
9775;SDS011;4927;52.472;13.108;2022-11-23T23:26:24;35.00;;;24.05;;
9775;SDS011;4927;52.472;13.108;2022-11-23T23:31:30;38.10;;;25.08;;
9775;SDS011;4927;52.472;13.108;2022-11-23T23:36:36;43.22;;;28.17;;
9775;SDS011;4927;52.472;13.108;2022-11-23T23:41:43;35.93;;;25.30;;
9775;SDS011;4927;52.472;13.108;2022-11-23T23:46:56;42.67;;;27.83;;
9775;SDS011;4927;52.472;13.108;2022-11-23T23:52:03;39.08;;;26.20;;
9775;SDS011;4927;52.472;13.108;2022-11-23T23:57:10;39.03;;;26.02;;
